createdAt,value
2022-09-09T00:00:51.001Z,4.07
2022-09-09T00:03:21.015Z,4.35
2022-09-09T00:05:55.691Z,4.35
2022-09-09T00:08:30.190Z,4.32
2022-09-09T00:11:02.102Z,4.13
2022-09-09T00:13:33.782Z,3.92
2022-09-09T00:16:05.083Z,3.90
2022-09-09T00:18:40.681Z,4.28
2022-09-09T00:21:12.944Z,3.90
2022-09-09T00:23:43.136Z,5.13
2022-09-09T00:26:16.472Z,4.30
2022-09-09T00:28:48.228Z,4.13
2022-09-09T00:31:20.330Z,4.32
2022-09-09T00:33:49.017Z,3.88
2022-09-09T00:36:19.940Z,3.97
2022-09-09T00:38:50.392Z,4.10
2022-09-09T00:41:23.747Z,4.28
2022-09-09T00:43:59.557Z,4.03
2022-09-09T00:46:55.558Z,4.70
2022-09-09T00:49:34.021Z,4.20
2022-09-09T00:52:14.810Z,4.43
2022-09-09T00:54:48.910Z,4.78
2022-09-09T00:57:29.365Z,4.30
2022-09-09T01:00:20.990Z,4.00
2022-09-09T01:03:08.725Z,4.07
2022-09-09T01:05:43.146Z,4.45
2022-09-09T01:08:20.156Z,4.32
2022-09-09T01:10:51.673Z,4.20
2022-09-09T01:13:25.976Z,4.03
2022-09-09T01:15:58.504Z,4.43
2022-09-09T01:18:35.556Z,4.38
2022-09-09T01:21:09.972Z,4.32
2022-09-09T01:24:18.195Z,4.43
2022-09-09T01:26:48.302Z,4.05
2022-09-09T01:29:19.331Z,4.53
2022-09-09T01:31:56.405Z,4.60
2022-09-09T01:34:25.860Z,4.53
2022-09-09T01:36:59.326Z,4.32
2022-09-09T01:39:27.806Z,4.63
2022-09-09T01:41:57.756Z,4.80
2022-09-09T01:44:27.010Z,4.95
2022-09-09T01:46:55.503Z,4.43
2022-09-09T01:49:23.973Z,4.63
2022-09-09T01:51:54.018Z,5.38
2022-09-09T01:54:22.596Z,4.40
2022-09-09T01:57:01.006Z,4.25
2022-09-09T01:59:48.215Z,4.75
2022-09-09T02:02:20.181Z,4.57
2022-09-09T02:04:50.935Z,4.40
2022-09-09T02:07:30.573Z,4.53
2022-09-09T02:10:03.552Z,4.40
2022-09-09T02:12:33.638Z,4.93
2022-09-09T02:15:06.184Z,4.60
2022-09-09T02:17:36.598Z,4.90
2022-09-09T02:20:08.340Z,4.70
2022-09-09T02:22:37.115Z,4.63
2022-09-09T02:25:06.919Z,4.93
2022-09-09T02:27:36.945Z,4.75
2022-09-09T02:30:06.854Z,4.68
2022-09-09T02:32:36.060Z,4.45
2022-09-09T02:35:07.658Z,5.22
2022-09-09T02:37:38.934Z,5.10
2022-09-09T02:40:08.900Z,4.70
2022-09-09T02:42:42.446Z,5.63
2022-09-09T02:45:12.392Z,5.10
2022-09-09T02:47:43.096Z,4.45
2022-09-09T02:50:15.539Z,4.60
2022-09-09T02:52:54.405Z,4.70
2022-09-09T02:55:26.164Z,4.70
2022-09-09T02:57:55.894Z,4.20
2022-09-09T03:00:28.247Z,4.43
2022-09-09T03:02:56.722Z,4.40
2022-09-09T03:05:25.437Z,4.15
2022-09-09T03:07:53.918Z,4.10
2022-09-09T03:10:22.357Z,4.20
2022-09-09T03:12:51.302Z,4.10
2022-09-09T03:15:22.640Z,4.38
2022-09-09T03:17:50.998Z,4.22
2022-09-09T03:20:19.865Z,3.97
2022-09-09T03:22:48.273Z,4.00
2022-09-09T03:25:17.274Z,4.20
2022-09-09T03:27:45.760Z,3.58
2022-09-09T03:30:15.077Z,4.30
2022-09-09T03:32:48.893Z,3.92
2022-09-09T03:35:18.158Z,4.63
2022-09-09T03:37:46.544Z,4.20
2022-09-09T03:40:15.284Z,3.92
2022-09-09T03:42:43.782Z,3.95
2022-09-09T03:45:12.635Z,3.65
2022-09-09T03:47:41.184Z,3.75
2022-09-09T03:50:12.184Z,4.30
2022-09-09T03:52:41.843Z,3.72
2022-09-09T03:55:10.723Z,5.38
2022-09-09T03:57:39.306Z,4.63
2022-09-09T04:00:09.533Z,4.00
2022-09-09T04:02:38.289Z,3.80
2022-09-09T04:05:08.332Z,3.65
2022-09-09T04:07:38.284Z,3.63
2022-09-09T04:10:09.596Z,3.40
2022-09-09T04:12:38.096Z,3.75
2022-09-09T04:15:07.919Z,3.55
2022-09-09T04:17:37.392Z,3.58
2022-09-09T04:20:06.477Z,3.70
2022-09-09T04:22:35.283Z,3.10
2022-09-09T04:25:06.223Z,3.97
2022-09-09T04:27:34.906Z,3.63
2022-09-09T04:30:03.436Z,4.32
2022-09-09T04:32:31.914Z,3.45
2022-09-09T04:35:00.345Z,3.63
2022-09-09T04:37:28.771Z,3.78
2022-09-09T04:39:58.087Z,3.67
2022-09-09T04:42:28.834Z,3.88
2022-09-09T04:44:57.679Z,3.60
2022-09-09T04:47:26.138Z,3.70
2022-09-09T04:49:55.542Z,3.42
2022-09-09T04:52:24.020Z,3.60
2022-09-09T04:54:54.556Z,3.50
2022-09-09T04:57:23.001Z,3.42
2022-09-09T04:59:52.846Z,3.42
2022-09-09T05:02:21.415Z,3.45
2022-09-09T05:04:50.797Z,3.35
2022-09-09T05:07:20.013Z,3.40
2022-09-09T05:09:50.437Z,3.53
2022-09-09T05:12:18.798Z,4.00
2022-09-09T05:14:47.216Z,3.70
2022-09-09T05:17:17.417Z,3.60
2022-09-09T05:19:45.813Z,3.35
2022-09-09T05:22:14.257Z,4.53
2022-09-09T05:24:43.202Z,3.42
2022-09-09T05:27:13.540Z,4.47
2022-09-09T05:29:44.423Z,4.45
2022-09-09T05:32:15.464Z,3.40
2022-09-09T05:34:45.500Z,3.75
2022-09-09T05:37:13.991Z,3.42
2022-09-09T05:39:42.728Z,3.15
2022-09-09T05:42:11.664Z,3.38
2022-09-09T05:44:40.191Z,3.45
2022-09-09T05:47:09.189Z,5.32
2022-09-09T05:49:38.729Z,4.25
2022-09-09T05:52:08.769Z,4.30
2022-09-09T05:54:38.585Z,4.30
2022-09-09T05:57:07.368Z,5.13
2022-09-09T05:59:35.821Z,7.60
2022-09-09T06:02:04.324Z,5.25
2022-09-09T06:04:33.224Z,10.38
2022-09-09T06:07:02.107Z,4.20
2022-09-09T06:09:31.919Z,6.00
2022-09-09T06:12:00.348Z,5.57
2022-09-09T06:14:29.072Z,4.18
2022-09-09T06:16:57.728Z,5.72
2022-09-09T06:19:27.997Z,3.70
2022-09-09T06:21:56.513Z,3.72
2022-09-09T06:24:24.983Z,3.63
2022-09-09T06:26:55.195Z,3.85
2022-09-09T06:29:23.743Z,4.30
2022-09-09T06:31:52.229Z,3.80
2022-09-09T06:34:20.763Z,5.78
2022-09-09T06:36:49.226Z,4.57
2022-09-09T06:39:17.649Z,5.57
2022-09-09T06:41:46.087Z,5.13
2022-09-09T06:44:16.585Z,5.43
2022-09-09T06:46:45.695Z,4.90
2022-09-09T06:49:14.167Z,5.18
2022-09-09T06:51:44.168Z,9.13
2022-09-09T06:54:13.211Z,4.32
2022-09-09T06:56:44.276Z,4.10
2022-09-09T06:59:13.196Z,4.07
2022-09-09T07:01:44.808Z,4.80
2022-09-09T07:04:14.052Z,3.30
2022-09-09T07:06:44.269Z,3.53
2022-09-09T07:09:16.024Z,3.72
2022-09-09T07:11:45.516Z,3.95
2022-09-09T07:14:15.062Z,3.17
2022-09-09T07:16:45.020Z,3.38
2022-09-09T07:19:13.864Z,3.28
2022-09-09T07:21:42.359Z,3.28
2022-09-09T07:24:11.763Z,3.30
2022-09-09T07:26:41.105Z,3.40
2022-09-09T07:29:09.754Z,4.03
2022-09-09T07:31:39.729Z,3.35
2022-09-09T07:34:09.600Z,3.40
2022-09-09T07:36:39.645Z,3.28
2022-09-09T07:39:10.056Z,3.53
2022-09-09T07:41:42.063Z,4.03
2022-09-09T07:44:12.847Z,3.58
2022-09-09T07:46:43.217Z,3.80
2022-09-09T07:49:13.305Z,3.15
2022-09-09T07:51:43.256Z,2.92
2022-09-09T07:54:13.170Z,6.05
2022-09-09T07:56:45.811Z,5.75
2022-09-09T07:59:14.593Z,3.40
2022-09-09T08:01:44.532Z,5.22
2022-09-09T08:04:17.582Z,2.90
2022-09-09T08:06:47.417Z,4.25
2022-09-09T08:09:15.954Z,5.65
2022-09-09T08:11:44.925Z,3.00
2022-09-09T08:14:13.751Z,5.15
2022-09-09T08:16:43.819Z,2.75
2022-09-09T08:19:13.723Z,3.10
2022-09-09T08:21:42.344Z,2.92
2022-09-09T08:24:12.143Z,3.15
2022-09-09T08:26:42.631Z,5.68
2022-09-09T08:29:12.702Z,3.13
2022-09-09T08:31:42.124Z,3.55
2022-09-09T08:34:10.883Z,2.80
2022-09-09T08:36:43.453Z,2.70
2022-09-09T08:39:12.519Z,3.00
2022-09-09T08:42:14.729Z,3.10
2022-09-09T08:44:58.779Z,3.60
2022-09-09T08:47:34.133Z,4.80
2022-09-09T08:50:13.828Z,2.58
2022-09-09T08:52:51.150Z,2.70
2022-09-09T08:55:27.648Z,2.72
2022-09-09T08:57:58.170Z,3.75
2022-09-09T09:00:30.897Z,3.25
2022-09-09T09:03:07.918Z,3.92
2022-09-09T09:05:42.189Z,4.25
2022-09-09T09:08:17.934Z,3.55
2022-09-09T09:10:49.699Z,3.35
2022-09-09T09:13:22.114Z,3.30
2022-09-09T09:15:54.803Z,4.68
2022-09-09T09:18:23.275Z,3.33
2022-09-09T09:20:59.276Z,3.03
2022-09-09T09:23:36.464Z,2.80
2022-09-09T09:26:09.460Z,3.30
2022-09-09T09:28:38.400Z,3.10
2022-09-09T09:31:09.028Z,3.25
2022-09-09T09:33:43.361Z,3.47
2022-09-09T09:36:14.391Z,3.40
2022-09-09T09:41:46.803Z,223.80
2022-09-09T09:44:26.706Z,119.78
2022-09-09T09:46:55.395Z,164.02
2022-09-09T09:49:24.111Z,113.30
2022-09-09T09:51:53.688Z,100.43
2022-09-09T09:54:28.874Z,64.20
2022-09-09T09:56:57.427Z,39.90
2022-09-09T09:59:39.699Z,30.00
2022-09-09T10:02:16.784Z,28.55
2022-09-09T10:04:46.412Z,24.33
2022-09-09T10:07:18.417Z,16.90
2022-09-09T10:09:56.752Z,14.20
2022-09-09T10:12:34.979Z,16.55
2022-09-09T10:15:07.992Z,13.13
2022-09-09T10:17:40.897Z,11.38
2022-09-09T10:20:27.343Z,10.23
2022-09-09T10:23:02.798Z,6.72
2022-09-09T10:25:46.750Z,9.85
2022-09-09T10:28:33.254Z,6.88
2022-09-09T10:31:10.690Z,10.80
2022-09-09T10:33:44.731Z,5.25
2022-09-09T10:36:15.888Z,5.78
2022-09-09T10:38:45.593Z,5.60
2022-09-09T10:41:22.253Z,8.95
2022-09-09T10:44:15.495Z,4.40
2022-09-09T10:46:55.152Z,5.65
2022-09-09T10:49:35.811Z,6.20
2022-09-09T10:52:07.715Z,6.68
2022-09-09T10:54:47.148Z,7.75
2022-09-09T10:57:23.798Z,5.95
2022-09-09T10:59:58.092Z,6.10
2022-09-09T11:02:29.571Z,4.63
2022-09-09T11:05:01.743Z,4.13
2022-09-09T11:07:36.070Z,4.88
2022-09-09T11:10:08.635Z,5.00
2022-09-09T11:12:38.869Z,4.22
2022-09-09T11:15:09.900Z,5.13
2022-09-09T11:17:42.492Z,3.70
2022-09-09T11:20:13.901Z,3.83
2022-09-09T11:22:46.575Z,3.70
2022-09-09T11:25:18.405Z,4.68
2022-09-09T11:28:00.313Z,3.08
2022-09-09T11:30:54.763Z,4.47
2022-09-09T11:33:51.188Z,2.80
2022-09-09T11:37:00.025Z,2.35
2022-09-09T11:40:04.749Z,2.65
2022-09-09T11:42:33.409Z,2.78
2022-09-09T11:45:14.031Z,2.42
2022-09-09T11:47:42.487Z,2.78
2022-09-09T11:50:25.093Z,2.10
2022-09-09T11:52:54.888Z,2.63
2022-09-09T11:55:29.927Z,2.70
2022-09-09T11:58:00.802Z,3.00
2022-09-09T12:00:38.124Z,2.60
2022-09-09T12:03:06.705Z,2.40
2022-09-09T12:05:40.129Z,2.70
2022-09-09T12:08:08.540Z,2.33
2022-09-09T12:10:38.764Z,3.83
2022-09-09T12:13:21.350Z,2.55
2022-09-09T12:15:51.804Z,4.65
2022-09-09T12:18:26.360Z,2.83
2022-09-09T12:20:59.529Z,2.13
2022-09-09T12:23:38.912Z,2.72
2022-09-09T12:26:26.081Z,2.20
2022-09-09T12:29:07.879Z,2.15
2022-09-09T12:31:45.756Z,2.60
2022-09-09T12:34:17.658Z,2.10
2022-09-09T12:36:53.209Z,2.42
2022-09-09T12:39:25.319Z,2.20
2022-09-09T12:41:58.164Z,1.88
2022-09-09T12:44:26.861Z,1.88
2022-09-09T12:46:56.633Z,2.15
2022-09-09T12:49:35.924Z,2.28
2022-09-09T12:52:06.964Z,2.65
2022-09-09T12:54:36.937Z,2.17
2022-09-09T12:57:06.040Z,2.25
2022-09-09T12:59:38.823Z,2.10
2022-09-09T13:02:20.725Z,2.10
2022-09-09T13:04:51.525Z,5.70
2022-09-09T13:07:20.617Z,4.32
2022-09-09T13:09:50.159Z,2.15
2022-09-09T13:12:20.620Z,5.32
2022-09-09T13:14:50.606Z,2.63
2022-09-09T13:17:23.718Z,2.17
2022-09-09T13:19:53.787Z,1.95
2022-09-09T13:22:31.787Z,2.80
2022-09-09T13:25:06.332Z,2.38
2022-09-09T13:27:36.123Z,2.95
2022-09-09T13:30:21.952Z,2.00
2022-09-09T13:33:03.061Z,2.03
2022-09-09T13:35:31.526Z,2.13
2022-09-09T13:38:00.277Z,2.30
2022-09-09T13:40:31.594Z,2.22
2022-09-09T13:43:00.614Z,1.98
2022-09-09T13:45:29.120Z,1.88
2022-09-09T13:47:58.894Z,2.67
2022-09-09T13:50:29.061Z,1.80
2022-09-09T13:52:59.337Z,1.98
2022-09-09T13:55:29.588Z,2.10
2022-09-09T13:57:59.160Z,2.20
2022-09-09T14:00:28.910Z,2.33
2022-09-09T14:02:59.668Z,2.22
2022-09-09T14:05:28.730Z,1.88
2022-09-09T14:07:57.275Z,2.22
2022-09-09T14:10:25.804Z,2.42
2022-09-09T14:12:55.137Z,2.20
2022-09-09T14:15:23.810Z,2.30
2022-09-09T14:17:53.351Z,3.45
2022-09-09T14:20:23.323Z,2.28
2022-09-09T14:22:54.454Z,2.30
2022-09-09T14:25:23.086Z,2.20
2022-09-09T14:27:52.277Z,2.03
2022-09-09T14:30:20.855Z,2.25
2022-09-09T14:32:49.352Z,2.85
2022-09-09T14:35:18.372Z,2.15
2022-09-09T14:37:48.613Z,2.05
2022-09-09T14:40:17.811Z,1.83
2022-09-09T14:42:46.258Z,2.53
2022-09-09T14:45:15.038Z,3.00
2022-09-09T14:47:43.719Z,2.13
2022-09-09T14:50:13.474Z,1.70
2022-09-09T14:52:42.099Z,1.95
2022-09-09T14:55:12.340Z,2.05
2022-09-09T14:57:41.247Z,1.98
2022-09-09T15:00:11.507Z,2.00
2022-09-09T15:02:40.376Z,3.40
2022-09-09T15:05:11.991Z,1.80
2022-09-09T15:07:41.010Z,2.38
2022-09-09T15:10:12.156Z,2.03
2022-09-09T15:12:40.621Z,2.65
2022-09-09T15:15:10.432Z,2.10
2022-09-09T15:17:38.992Z,1.90
2022-09-09T15:20:09.213Z,3.10
2022-09-09T15:22:38.970Z,2.03
2022-09-09T15:25:09.281Z,2.05
2022-09-09T15:27:40.197Z,2.00
2022-09-09T15:30:11.065Z,2.15
2022-09-09T15:32:39.709Z,1.90
2022-09-09T15:35:09.647Z,2.10
2022-09-09T15:37:38.189Z,1.88
2022-09-09T15:40:08.126Z,1.98
2022-09-09T15:42:37.946Z,1.92
2022-09-09T15:45:07.953Z,2.10
2022-09-09T15:47:36.339Z,1.90
2022-09-09T15:50:05.420Z,3.42
2022-09-09T15:52:34.316Z,2.20
2022-09-09T15:55:02.811Z,2.20
2022-09-09T15:57:31.169Z,1.95
2022-09-09T16:00:01.558Z,1.90
2022-09-09T16:02:30.283Z,1.85
2022-09-09T16:04:59.372Z,1.70
2022-09-09T16:07:27.941Z,2.25
2022-09-09T16:09:56.368Z,1.65
2022-09-09T16:12:24.863Z,2.15
2022-09-09T16:14:53.298Z,1.90
2022-09-09T16:17:23.108Z,2.10
2022-09-09T16:19:51.770Z,2.30
2022-09-09T16:22:20.187Z,2.33
2022-09-09T16:24:48.947Z,2.72
2022-09-09T16:27:17.416Z,1.92
2022-09-09T16:29:46.437Z,2.20
2022-09-09T16:32:15.427Z,1.77
2022-09-09T16:34:45.171Z,2.45
2022-09-09T16:37:13.588Z,1.95
2022-09-09T16:39:42.103Z,2.35
2022-09-09T16:42:11.230Z,2.88
2022-09-09T16:44:39.716Z,2.25
2022-09-09T16:47:08.171Z,2.58
2022-09-09T16:49:37.044Z,3.58
2022-09-09T16:52:07.006Z,2.60
2022-09-09T16:54:35.532Z,2.38
2022-09-09T16:57:03.958Z,3.28
2022-09-09T16:59:33.175Z,5.22
2022-09-09T17:02:02.000Z,2.80
2022-09-09T17:04:31.983Z,2.55
2022-09-09T17:07:01.579Z,2.88
2022-09-09T17:09:32.525Z,3.30
2022-09-09T17:12:02.124Z,3.05
2022-09-09T17:14:32.807Z,2.50
2022-09-09T17:17:18.982Z,2.80
2022-09-09T17:19:51.586Z,2.85
2022-09-09T17:22:20.973Z,2.80
2022-09-09T17:24:50.806Z,3.20
2022-09-09T17:27:19.557Z,3.42
2022-09-09T17:29:48.034Z,2.65
2022-09-09T17:32:16.439Z,3.03
2022-09-09T17:34:44.925Z,3.22
2022-09-09T17:37:14.248Z,3.72
2022-09-09T17:39:42.736Z,6.32
2022-09-09T17:42:12.697Z,11.02
2022-09-09T17:44:42.821Z,4.47
2022-09-09T17:47:11.279Z,19.85
2022-09-09T17:49:40.987Z,60.28
2022-09-09T17:52:09.421Z,64.90
2022-09-09T17:54:38.163Z,47.97
2022-09-09T17:57:07.635Z,30.00
2022-09-09T17:59:37.937Z,17.08
2022-09-09T18:02:06.805Z,31.13
2022-09-09T18:04:37.157Z,17.23
2022-09-09T18:07:05.806Z,33.50
2022-09-09T18:09:34.799Z,30.30
2022-09-09T18:12:03.697Z,31.00
2022-09-09T18:14:32.858Z,29.98
2022-09-09T18:17:04.149Z,22.42
2022-09-09T18:19:33.105Z,25.45
2022-09-09T18:22:02.903Z,19.20
2022-09-09T18:24:31.774Z,22.05
2022-09-09T18:27:01.005Z,23.88
2022-09-09T18:29:30.012Z,20.38
2022-09-09T18:31:58.540Z,18.65
2022-09-09T18:34:30.238Z,20.38
2022-09-09T18:36:58.995Z,14.85
2022-09-09T18:39:29.256Z,12.77
2022-09-09T18:41:59.684Z,10.15
2022-09-09T18:44:30.299Z,13.90
2022-09-09T18:46:58.888Z,15.98
2022-09-09T18:49:28.900Z,10.65
2022-09-09T18:51:58.001Z,12.95
2022-09-09T18:54:29.838Z,11.65
2022-09-09T18:57:00.620Z,11.63
2022-09-09T18:59:29.384Z,13.13
2022-09-09T19:01:57.994Z,12.50
2022-09-09T19:04:28.071Z,12.38
2022-09-09T19:06:58.736Z,9.93
2022-09-09T19:09:28.739Z,10.15
2022-09-09T19:11:57.466Z,8.57
2022-09-09T19:14:28.569Z,9.48
2022-09-09T19:16:57.104Z,11.13
2022-09-09T19:19:28.636Z,9.20
2022-09-09T19:21:57.757Z,8.13
2022-09-09T19:24:28.222Z,9.40
2022-09-09T19:27:00.375Z,10.38
2022-09-09T19:29:30.042Z,13.02
2022-09-09T19:32:42.221Z,9.85
2022-09-09T19:34:50.424Z,9.13
2022-09-09T19:37:19.447Z,8.00
2022-09-09T19:39:48.101Z,11.63
2022-09-09T19:42:16.689Z,11.52
2022-09-09T19:44:45.576Z,8.68
2022-09-09T19:47:15.349Z,10.50
2022-09-09T19:49:47.077Z,9.95
2022-09-09T19:52:17.655Z,9.77
2022-09-09T19:54:46.794Z,7.72
2022-09-09T19:57:15.590Z,9.63
2022-09-09T19:59:44.187Z,11.10
2022-09-09T20:02:15.735Z,9.98
2022-09-09T20:04:44.888Z,12.18
2022-09-09T20:07:13.639Z,10.35
2022-09-09T20:09:43.734Z,12.48
2022-09-09T20:12:12.180Z,8.55
2022-09-09T20:14:40.616Z,8.82
2022-09-09T20:17:10.279Z,9.13
2022-09-09T20:19:39.794Z,9.07
2022-09-09T20:22:08.298Z,10.15
2022-09-09T20:24:38.153Z,8.07
2022-09-09T20:27:08.385Z,7.88
2022-09-09T20:29:37.306Z,8.25
2022-09-09T20:32:06.967Z,10.05
2022-09-09T20:34:35.512Z,13.50
2022-09-09T20:37:04.785Z,13.80
2022-09-09T20:39:33.243Z,13.30
2022-09-09T20:42:02.349Z,13.25
2022-09-09T20:44:32.138Z,13.65
2022-09-09T20:47:06.195Z,11.23
2022-09-09T20:49:36.147Z,9.95
2022-09-09T20:52:04.926Z,13.82
2022-09-09T20:54:35.266Z,12.43
2022-09-09T20:57:04.229Z,11.50
2022-09-09T20:59:34.809Z,12.13
2022-09-09T21:02:03.614Z,9.70
2022-09-09T21:04:32.426Z,14.13
2022-09-09T21:07:02.562Z,10.32
2022-09-09T21:09:31.129Z,11.13
2022-09-09T21:11:59.638Z,10.38
2022-09-09T21:14:28.489Z,9.75
2022-09-09T21:16:58.236Z,9.50
2022-09-09T21:19:26.923Z,10.23
2022-09-09T21:21:55.452Z,8.27
2022-09-09T21:24:24.039Z,10.82
2022-09-09T21:26:54.596Z,10.65
2022-09-09T21:29:24.344Z,9.20
2022-09-09T21:31:53.176Z,9.48
2022-09-09T21:34:23.284Z,8.55
2022-09-09T21:36:51.715Z,9.75
2022-09-09T21:39:20.460Z,9.60
2022-09-09T21:41:49.110Z,9.82
2022-09-09T21:44:19.192Z,6.80
2022-09-09T21:46:47.838Z,8.68
2022-09-09T21:49:16.401Z,7.70
2022-09-09T21:51:47.181Z,7.85
2022-09-09T21:54:15.655Z,10.88
2022-09-09T21:56:44.088Z,9.32
2022-09-09T21:59:12.488Z,11.15
2022-09-09T22:01:42.374Z,8.68
2022-09-09T22:04:10.971Z,8.80
2022-09-09T22:06:39.636Z,8.38
2022-09-09T22:09:09.583Z,8.98
2022-09-09T22:11:38.128Z,8.35
2022-09-09T22:14:08.069Z,7.50
2022-09-09T22:16:36.559Z,11.32
2022-09-09T22:19:05.162Z,9.82
2022-09-09T22:21:34.138Z,7.85
2022-09-09T22:24:04.304Z,10.68
2022-09-09T22:26:35.438Z,8.52
2022-09-09T22:29:05.095Z,11.20
2022-09-09T22:31:34.341Z,9.50
2022-09-09T22:34:02.994Z,8.77
2022-09-09T22:36:32.229Z,8.70
2022-09-09T22:39:01.229Z,7.80
2022-09-09T22:41:30.635Z,7.85
2022-09-09T22:44:00.502Z,9.57
2022-09-09T22:46:29.488Z,8.75
2022-09-09T22:48:58.357Z,7.78
2022-09-09T22:51:26.814Z,7.65
2022-09-09T22:53:57.285Z,8.57
2022-09-09T22:56:25.863Z,6.88
2022-09-09T22:58:55.736Z,10.35
2022-09-09T23:01:26.765Z,7.95
2022-09-09T23:03:55.763Z,7.65
2022-09-09T23:06:25.458Z,7.78
2022-09-09T23:08:55.997Z,8.20
2022-09-09T23:11:25.174Z,7.43
2022-09-09T23:13:55.012Z,8.35
2022-09-09T23:16:26.396Z,8.32
2022-09-09T23:18:55.208Z,7.25
2022-09-09T23:21:26.469Z,7.30
2022-09-09T23:23:55.156Z,7.45
2022-09-09T23:26:24.161Z,8.45
2022-09-09T23:28:53.433Z,7.65
2022-09-09T23:31:25.080Z,9.82
2022-09-09T23:33:55.363Z,6.97
2022-09-09T23:36:25.812Z,7.50
2022-09-09T23:38:56.355Z,7.93
2022-09-09T23:41:25.036Z,9.68
2022-09-09T23:43:54.342Z,10.25
2022-09-09T23:46:25.412Z,10.93
2022-09-09T23:48:57.579Z,9.05
2022-09-09T23:51:29.068Z,8.48
2022-09-09T23:53:58.814Z,8.18
2022-09-09T23:56:28.797Z,10.00
2022-09-09T23:58:57.189Z,8.93
